sensor_id;sensor_type;location;lat;lon;timestamp;pressure;altitude;pressure_sealevel;temperature;humidity
59939;BME280;45801;51.810;19.444;2023-02-12T00:01:10;100362.30;;;4.62;79.68
59939;BME280;45801;51.810;19.444;2023-02-12T00:03:39;100363.04;;;4.54;79.47
59939;BME280;45801;51.810;19.444;2023-02-12T00:06:06;100359.94;;;4.46;79.82
59939;BME280;45801;51.810;19.444;2023-02-12T00:08:33;100355.05;;;4.52;79.62
59939;BME280;45801;51.810;19.444;2023-02-12T00:10:59;100359.23;;;4.56;79.10
59939;BME280;45801;51.810;19.444;2023-02-12T00:13:25;100364.65;;;4.57;78.47
59939;BME280;45801;51.810;19.444;2023-02-12T00:15:51;100363.77;;;4.50;78.27
59939;BME280;45801;51.810;19.444;2023-02-12T00:18:16;100372.89;;;4.45;77.93
59939;BME280;45801;51.810;19.444;2023-02-12T00:20:42;100370.69;;;4.44;78.54
59939;BME280;45801;51.810;19.444;2023-02-12T00:23:09;100370.77;;;4.49;78.90
59939;BME280;45801;51.810;19.444;2023-02-12T00:25:40;100371.83;;;4.51;78.46
59939;BME280;45801;51.810;19.444;2023-02-12T00:28:06;100365.80;;;4.54;77.48
59939;BME280;45801;51.810;19.444;2023-02-12T00:30:32;100369.10;;;4.54;77.61
59939;BME280;45801;51.810;19.444;2023-02-12T00:32:58;100377.42;;;4.54;77.08
59939;BME280;45801;51.810;19.444;2023-02-12T00:35:23;100390.29;;;4.50;76.51
59939;BME280;45801;51.810;19.444;2023-02-12T00:37:49;100403.58;;;4.41;74.98
59939;BME280;45801;51.810;19.444;2023-02-12T00:40:15;100419.59;;;4.26;74.45
59939;BME280;45801;51.810;19.444;2023-02-12T00:42:41;100432.85;;;4.15;75.39
59939;BME280;45801;51.810;19.444;2023-02-12T00:45:07;100435.25;;;4.06;75.07
59939;BME280;45801;51.810;19.444;2023-02-12T00:47:33;100449.23;;;3.98;75.42
59939;BME280;45801;51.810;19.444;2023-02-12T00:49:59;100453.67;;;3.94;74.81
59939;BME280;45801;51.810;19.444;2023-02-12T00:52:25;100452.06;;;3.85;73.84
59939;BME280;45801;51.810;19.444;2023-02-12T00:54:51;100460.00;;;3.77;74.63
59939;BME280;45801;51.810;19.444;2023-02-12T00:57:17;100469.42;;;3.67;74.54
59939;BME280;45801;51.810;19.444;2023-02-12T00:59:43;100471.98;;;3.65;75.31
59939;BME280;45801;51.810;19.444;2023-02-12T01:02:08;100474.20;;;3.59;74.57
59939;BME280;45801;51.810;19.444;2023-02-12T01:04:35;100480.36;;;3.50;74.35
59939;BME280;45801;51.810;19.444;2023-02-12T01:07:01;100486.84;;;3.44;74.37
59939;BME280;45801;51.810;19.444;2023-02-12T01:09:27;100489.30;;;3.37;73.95
59939;BME280;45801;51.810;19.444;2023-02-12T01:11:53;100491.46;;;3.32;74.18
59939;BME280;45801;51.810;19.444;2023-02-12T01:14:20;100499.23;;;3.31;75.28
59939;BME280;45801;51.810;19.444;2023-02-12T01:16:46;100504.83;;;3.32;74.91
59939;BME280;45801;51.810;19.444;2023-02-12T01:19:12;100505.11;;;3.33;74.44
59939;BME280;45801;51.810;19.444;2023-02-12T01:21:38;100504.14;;;3.34;73.80
59939;BME280;45801;51.810;19.444;2023-02-12T01:24:04;100502.86;;;3.31;73.66
59939;BME280;45801;51.810;19.444;2023-02-12T01:26:30;100508.23;;;3.30;74.17
59939;BME280;45801;51.810;19.444;2023-02-12T01:29:02;100508.30;;;3.29;73.81
59939;BME280;45801;51.810;19.444;2023-02-12T01:31:32;100512.24;;;3.28;73.66
59939;BME280;45801;51.810;19.444;2023-02-12T01:33:59;100513.91;;;3.26;73.61
59939;BME280;45801;51.810;19.444;2023-02-12T01:36:27;100516.44;;;3.23;73.37
59939;BME280;45801;51.810;19.444;2023-02-12T01:38:54;100525.39;;;3.19;72.66
59939;BME280;45801;51.810;19.444;2023-02-12T01:41:23;100537.95;;;3.14;73.43
59939;BME280;45801;51.810;19.444;2023-02-12T01:44:30;100536.48;;;3.11;73.39
59939;BME280;45801;51.810;19.444;2023-02-12T01:47:01;100534.50;;;3.07;72.99
59939;BME280;45801;51.810;19.444;2023-02-12T01:49:39;100541.73;;;3.10;73.89
59939;BME280;45801;51.810;19.444;2023-02-12T01:52:13;100543.76;;;3.32;73.90
59939;BME280;45801;51.810;19.444;2023-02-12T01:54:40;100550.28;;;3.43;72.87
59939;BME280;45801;51.810;19.444;2023-02-12T01:57:08;100547.83;;;3.44;72.37
59939;BME280;45801;51.810;19.444;2023-02-12T01:59:39;100547.32;;;3.43;72.19
59939;BME280;45801;51.810;19.444;2023-02-12T02:02:08;100554.04;;;3.40;72.52
59939;BME280;45801;51.810;19.444;2023-02-12T02:04:45;100554.56;;;3.38;72.74
59939;BME280;45801;51.810;19.444;2023-02-12T02:07:13;100549.39;;;3.35;72.56
59939;BME280;45801;51.810;19.444;2023-02-12T02:09:39;100551.73;;;3.32;72.36
59939;BME280;45801;51.810;19.444;2023-02-12T02:12:06;100554.04;;;3.31;72.31
59939;BME280;45801;51.810;19.444;2023-02-12T02:14:53;100560.02;;;3.28;72.68
59939;BME280;45801;51.810;19.444;2023-02-12T02:17:46;100568.06;;;3.25;72.66
59939;BME280;45801;51.810;19.444;2023-02-12T02:28:45;100573.61;;;3.21;72.08
59939;BME280;45801;51.810;19.444;2023-02-12T02:31:31;100585.21;;;3.12;71.96
59939;BME280;45801;51.810;19.444;2023-02-12T02:36:43;100596.82;;;3.05;72.30
59939;BME280;45801;51.810;19.444;2023-02-12T02:39:24;100600.33;;;3.08;72.00
59939;BME280;45801;51.810;19.444;2023-02-12T02:45:12;100609.94;;;3.12;71.71
59939;BME280;45801;51.810;19.444;2023-02-12T02:47:45;100620.50;;;3.12;71.97
59939;BME280;45801;51.810;19.444;2023-02-12T02:50:17;100632.67;;;3.12;72.38
59939;BME280;45801;51.810;19.444;2023-02-12T02:52:55;100639.80;;;3.14;72.40
59939;BME280;45801;51.810;19.444;2023-02-12T02:55:25;100640.28;;;3.16;72.20
59939;BME280;45801;51.810;19.444;2023-02-12T02:58:04;100652.28;;;3.18;71.97
59939;BME280;45801;51.810;19.444;2023-02-12T03:00:36;100654.77;;;3.21;71.86
59939;BME280;45801;51.810;19.444;2023-02-12T03:03:13;100658.18;;;3.22;71.60
59939;BME280;45801;51.810;19.444;2023-02-12T03:05:45;100660.23;;;3.20;71.74
59939;BME280;45801;51.810;19.444;2023-02-12T03:08:18;100663.21;;;3.21;72.04
59939;BME280;45801;51.810;19.444;2023-02-12T03:10:54;100665.19;;;3.23;71.80
59939;BME280;45801;51.810;19.444;2023-02-12T03:13:26;100667.06;;;3.25;71.68
59939;BME280;45801;51.810;19.444;2023-02-12T03:16:02;100668.98;;;3.25;71.71
59939;BME280;45801;51.810;19.444;2023-02-12T03:18:38;100670.12;;;3.27;71.87
59939;BME280;45801;51.810;19.444;2023-02-12T03:21:11;100669.04;;;3.29;71.35
59939;BME280;45801;51.810;19.444;2023-02-12T03:23:42;100675.18;;;3.30;70.65
59939;BME280;45801;51.810;19.444;2023-02-12T03:26:19;100675.80;;;3.29;70.70
59939;BME280;45801;51.810;19.444;2023-02-12T03:28:46;100675.70;;;3.30;70.74
59939;BME280;45801;51.810;19.444;2023-02-12T03:31:20;100679.54;;;3.32;71.23
59939;BME280;45801;51.810;19.444;2023-02-12T03:39:19;100690.02;;;3.29;70.61
59939;BME280;45801;51.810;19.444;2023-02-12T03:42:09;100695.03;;;3.24;70.87
59939;BME280;45801;51.810;19.444;2023-02-12T03:44:51;100701.09;;;3.20;70.65
59939;BME280;45801;51.810;19.444;2023-02-12T03:47:29;100710.67;;;3.12;69.64
59939;BME280;45801;51.810;19.444;2023-02-12T03:50:09;100720.08;;;3.05;69.79
59939;BME280;45801;51.810;19.444;2023-02-12T03:52:36;100718.57;;;3.00;70.12
59939;BME280;45801;51.810;19.444;2023-02-12T03:55:03;100720.96;;;2.98;70.16
59939;BME280;45801;51.810;19.444;2023-02-12T03:57:38;100727.58;;;2.90;69.27
59939;BME280;45801;51.810;19.444;2023-02-12T04:00:09;100729.69;;;2.85;69.04
59939;BME280;45801;51.810;19.444;2023-02-12T04:02:36;100737.11;;;2.84;69.52
59939;BME280;45801;51.810;19.444;2023-02-12T04:05:06;100742.27;;;2.86;70.14
59939;BME280;45801;51.810;19.444;2023-02-12T04:07:34;100742.94;;;2.86;70.59
59939;BME280;45801;51.810;19.444;2023-02-12T04:10:01;100743.28;;;2.87;70.98
59939;BME280;45801;51.810;19.444;2023-02-12T04:13:09;100742.15;;;2.90;70.64
59939;BME280;45801;51.810;19.444;2023-02-12T04:18:18;100752.25;;;2.91;70.04
59939;BME280;45801;51.810;19.444;2023-02-12T04:31:44;100769.92;;;2.98;69.42
59939;BME280;45801;51.810;19.444;2023-02-12T04:37:02;100782.70;;;2.96;69.34
59939;BME280;45801;51.810;19.444;2023-02-12T04:39:31;100788.51;;;2.96;69.71
59939;BME280;45801;51.810;19.444;2023-02-12T04:42:00;100790.96;;;2.99;69.62
59939;BME280;45801;51.810;19.444;2023-02-12T04:44:29;100785.38;;;3.00;69.54
59939;BME280;45801;51.810;19.444;2023-02-12T04:46:56;100786.98;;;3.00;69.59
59939;BME280;45801;51.810;19.444;2023-02-12T04:49:23;100792.30;;;3.04;69.87
59939;BME280;45801;51.810;19.444;2023-02-12T04:51:50;100795.52;;;3.07;69.98
59939;BME280;45801;51.810;19.444;2023-02-12T04:54:18;100794.56;;;3.07;69.56
59939;BME280;45801;51.810;19.444;2023-02-12T04:56:45;100797.67;;;3.09;69.56
59939;BME280;45801;51.810;19.444;2023-02-12T04:59:11;100797.13;;;3.09;69.39
59939;BME280;45801;51.810;19.444;2023-02-12T05:01:39;100795.45;;;3.09;69.24
59939;BME280;45801;51.810;19.444;2023-02-12T05:04:06;100795.05;;;3.11;68.85
59939;BME280;45801;51.810;19.444;2023-02-12T05:06:36;100799.54;;;3.11;68.97
59939;BME280;45801;51.810;19.444;2023-02-12T05:09:03;100802.68;;;3.09;68.90
59939;BME280;45801;51.810;19.444;2023-02-12T05:11:29;100806.73;;;3.06;69.21
59939;BME280;45801;51.810;19.444;2023-02-12T05:13:55;100808.48;;;3.05;69.04
59939;BME280;45801;51.810;19.444;2023-02-12T05:16:22;100806.84;;;3.04;68.45
59939;BME280;45801;51.810;19.444;2023-02-12T05:18:49;100812.71;;;3.06;68.84
59939;BME280;45801;51.810;19.444;2023-02-12T05:21:15;100817.38;;;3.05;69.04
59939;BME280;45801;51.810;19.444;2023-02-12T05:23:42;100823.43;;;3.05;69.23
59939;BME280;45801;51.810;19.444;2023-02-12T05:26:18;100823.92;;;3.05;68.81
59939;BME280;45801;51.810;19.444;2023-02-12T05:28:44;100827.12;;;3.06;68.80
59939;BME280;45801;51.810;19.444;2023-02-12T05:31:15;100830.95;;;3.06;68.86
59939;BME280;45801;51.810;19.444;2023-02-12T05:33:43;100837.36;;;3.06;68.50
59939;BME280;45801;51.810;19.444;2023-02-12T05:36:15;100835.06;;;3.06;68.43
59939;BME280;45801;51.810;19.444;2023-02-12T05:38:43;100839.08;;;3.02;68.17
59939;BME280;45801;51.810;19.444;2023-02-12T05:41:12;100840.58;;;2.98;68.03
59939;BME280;45801;51.810;19.444;2023-02-12T05:43:39;100839.02;;;2.96;68.22
59939;BME280;45801;51.810;19.444;2023-02-12T05:46:06;100844.39;;;2.96;67.65
59939;BME280;45801;51.810;19.444;2023-02-12T05:48:33;100851.79;;;2.97;68.00
59939;BME280;45801;51.810;19.444;2023-02-12T05:51:12;100856.63;;;2.99;68.20
59939;BME280;45801;51.810;19.444;2023-02-12T05:53:40;100854.77;;;3.02;68.19
59939;BME280;45801;51.810;19.444;2023-02-12T05:56:20;100855.16;;;3.04;68.08
59939;BME280;45801;51.810;19.444;2023-02-12T05:58:56;100856.08;;;3.05;68.42
59939;BME280;45801;51.810;19.444;2023-02-12T06:01:31;100861.46;;;3.05;68.25
59939;BME280;45801;51.810;19.444;2023-02-12T06:03:59;100867.84;;;3.05;68.35
59939;BME280;45801;51.810;19.444;2023-02-12T06:06:26;100874.54;;;3.06;67.72
59939;BME280;45801;51.810;19.444;2023-02-12T06:08:53;100881.86;;;3.08;67.93
59939;BME280;45801;51.810;19.444;2023-02-12T06:11:18;100890.80;;;3.08;68.25
59939;BME280;45801;51.810;19.444;2023-02-12T06:13:46;100898.02;;;3.03;66.52
59939;BME280;45801;51.810;19.444;2023-02-12T06:16:30;100905.85;;;2.98;67.01
59939;BME280;45801;51.810;19.444;2023-02-12T06:18:57;100908.47;;;2.92;66.92
59939;BME280;45801;51.810;19.444;2023-02-12T06:21:24;100908.20;;;2.89;66.65
59939;BME280;45801;51.810;19.444;2023-02-12T06:23:52;100909.07;;;2.89;67.30
59939;BME280;45801;51.810;19.444;2023-02-12T06:26:18;100918.49;;;2.93;68.14
59939;BME280;45801;51.810;19.444;2023-02-12T06:28:45;100923.14;;;2.96;68.03
59939;BME280;45801;51.810;19.444;2023-02-12T06:31:22;100923.69;;;2.98;67.95
59939;BME280;45801;51.810;19.444;2023-02-12T06:33:49;100922.90;;;3.01;68.13
59939;BME280;45801;51.810;19.444;2023-02-12T06:36:16;100923.13;;;3.03;68.12
59939;BME280;45801;51.810;19.444;2023-02-12T06:38:42;100919.52;;;3.06;67.77
59939;BME280;45801;51.810;19.444;2023-02-12T06:41:08;100920.60;;;3.08;67.95
59939;BME280;45801;51.810;19.444;2023-02-12T06:43:34;100923.39;;;3.09;67.96
59939;BME280;45801;51.810;19.444;2023-02-12T06:46:01;100928.68;;;3.12;68.07
59939;BME280;45801;51.810;19.444;2023-02-12T06:48:28;100943.70;;;3.13;67.38
59939;BME280;45801;51.810;19.444;2023-02-12T06:50:54;100949.80;;;3.12;67.29
59939;BME280;45801;51.810;19.444;2023-02-12T06:53:20;100956.83;;;3.11;67.17
59939;BME280;45801;51.810;19.444;2023-02-12T06:55:46;100962.26;;;3.12;67.13
59939;BME280;45801;51.810;19.444;2023-02-12T06:58:12;100970.84;;;3.15;67.30
59939;BME280;45801;51.810;19.444;2023-02-12T07:00:38;100971.27;;;3.17;67.55
59939;BME280;45801;51.810;19.444;2023-02-12T07:03:04;100978.09;;;3.20;67.39
59939;BME280;45801;51.810;19.444;2023-02-12T07:05:31;100978.52;;;3.17;66.90
59939;BME280;45801;51.810;19.444;2023-02-12T07:07:57;100981.35;;;3.16;67.01
59939;BME280;45801;51.810;19.444;2023-02-12T07:10:23;100981.77;;;3.17;65.89
59939;BME280;45801;51.810;19.444;2023-02-12T07:12:49;100989.00;;;3.18;66.63
59939;BME280;45801;51.810;19.444;2023-02-12T07:15:15;100992.91;;;3.19;66.39
59939;BME280;45801;51.810;19.444;2023-02-12T07:17:41;100992.23;;;3.21;66.15
59939;BME280;45801;51.810;19.444;2023-02-12T07:20:07;100992.20;;;3.23;66.25
59939;BME280;45801;51.810;19.444;2023-02-12T07:22:36;100991.14;;;3.24;66.35
59939;BME280;45801;51.810;19.444;2023-02-12T07:25:03;100992.48;;;3.25;65.82
59939;BME280;45801;51.810;19.444;2023-02-12T07:27:28;100990.63;;;3.25;65.17
59939;BME280;45801;51.810;19.444;2023-02-12T07:29:54;100990.86;;;3.26;65.56
59939;BME280;45801;51.810;19.444;2023-02-12T07:32:20;100989.38;;;3.28;65.97
59939;BME280;45801;51.810;19.444;2023-02-12T07:34:46;100989.31;;;3.30;65.21
59939;BME280;45801;51.810;19.444;2023-02-12T07:37:12;100994.26;;;3.30;65.05
59939;BME280;45801;51.810;19.444;2023-02-12T07:39:38;101002.30;;;3.33;65.61
59939;BME280;45801;51.810;19.444;2023-02-12T07:42:04;101006.41;;;3.34;65.25
59939;BME280;45801;51.810;19.444;2023-02-12T07:44:30;101010.73;;;3.36;65.34
59939;BME280;45801;51.810;19.444;2023-02-12T07:46:56;101016.09;;;3.36;64.90
59939;BME280;45801;51.810;19.444;2023-02-12T07:49:23;101017.46;;;3.34;64.33
59939;BME280;45801;51.810;19.444;2023-02-12T07:51:49;101022.29;;;3.29;62.58
59939;BME280;45801;51.810;19.444;2023-02-12T07:54:16;101024.84;;;3.22;63.30
59939;BME280;45801;51.810;19.444;2023-02-12T07:56:42;101023.75;;;3.21;64.07
59939;BME280;45801;51.810;19.444;2023-02-12T07:59:13;101024.42;;;3.24;64.26
59939;BME280;45801;51.810;19.444;2023-02-12T08:01:42;101025.40;;;3.27;64.79
59939;BME280;45801;51.810;19.444;2023-02-12T08:04:12;101024.92;;;3.31;64.89
59939;BME280;45801;51.810;19.444;2023-02-12T08:06:41;101029.77;;;3.34;63.77
59939;BME280;45801;51.810;19.444;2023-02-12T08:09:10;101028.95;;;3.38;63.70
59939;BME280;45801;51.810;19.444;2023-02-12T08:11:40;101023.55;;;3.43;64.21
59939;BME280;45801;51.810;19.444;2023-02-12T08:14:06;101032.92;;;3.42;62.75
59939;BME280;45801;51.810;19.444;2023-02-12T08:16:36;101032.73;;;3.35;62.48
59939;BME280;45801;51.810;19.444;2023-02-12T08:19:03;101037.88;;;3.32;63.61
59939;BME280;45801;51.810;19.444;2023-02-12T08:21:29;101034.84;;;3.31;63.32
59939;BME280;45801;51.810;19.444;2023-02-12T08:23:57;101031.21;;;3.33;63.20
59939;BME280;45801;51.810;19.444;2023-02-12T08:26:26;101024.73;;;3.38;63.44
59939;BME280;45801;51.810;19.444;2023-02-12T08:29:01;101021.84;;;3.43;63.25
59939;BME280;45801;51.810;19.444;2023-02-12T08:31:31;101019.70;;;3.50;63.24
59939;BME280;45801;51.810;19.444;2023-02-12T08:33:59;101020.07;;;3.55;63.06
59939;BME280;45801;51.810;19.444;2023-02-12T08:36:35;101024.20;;;3.58;63.27
59939;BME280;45801;51.810;19.444;2023-02-12T08:39:03;101023.98;;;3.61;62.98
59939;BME280;45801;51.810;19.444;2023-02-12T08:41:29;101021.23;;;3.67;63.11
59939;BME280;45801;51.810;19.444;2023-02-12T08:43:58;101017.84;;;3.73;63.65
59939;BME280;45801;51.810;19.444;2023-02-12T08:46:26;101024.56;;;3.81;62.88
59939;BME280;45801;51.810;19.444;2023-02-12T08:48:56;101033.64;;;3.89;62.46
59939;BME280;45801;51.810;19.444;2023-02-12T08:51:24;101039.45;;;3.95;61.98
59939;BME280;45801;51.810;19.444;2023-02-12T08:53:52;101040.88;;;3.97;62.00
59939;BME280;45801;51.810;19.444;2023-02-12T08:56:19;101046.35;;;4.02;61.59
59939;BME280;45801;51.810;19.444;2023-02-12T08:58:46;101051.30;;;4.04;60.63
59939;BME280;45801;51.810;19.444;2023-02-12T09:01:14;101053.15;;;3.99;58.95
59939;BME280;45801;51.810;19.444;2023-02-12T09:03:42;101051.46;;;3.99;60.07
59939;BME280;45801;51.810;19.444;2023-02-12T09:06:08;101047.01;;;3.89;58.32
59939;BME280;45801;51.810;19.444;2023-02-12T09:08:36;101048.19;;;3.82;58.85
59939;BME280;45801;51.810;19.444;2023-02-12T09:11:11;101047.28;;;3.78;59.57
59939;BME280;45801;51.810;19.444;2023-02-12T09:13:37;101054.73;;;3.78;60.34
59939;BME280;45801;51.810;19.444;2023-02-12T09:16:05;101059.58;;;3.80;59.21
59939;BME280;45801;51.810;19.444;2023-02-12T09:18:32;101062.48;;;3.81;59.11
59939;BME280;45801;51.810;19.444;2023-02-12T09:21:05;101063.27;;;3.80;58.73
59939;BME280;45801;51.810;19.444;2023-02-12T09:23:31;101061.05;;;3.82;60.06
59939;BME280;45801;51.810;19.444;2023-02-12T09:25:58;101062.02;;;3.83;58.82
59939;BME280;45801;51.810;19.444;2023-02-12T09:28:24;101066.13;;;3.72;58.10
59939;BME280;45801;51.810;19.444;2023-02-12T09:30:50;101071.78;;;3.73;59.18
59939;BME280;45801;51.810;19.444;2023-02-12T09:33:16;101074.99;;;3.78;59.84
59939;BME280;45801;51.810;19.444;2023-02-12T09:35:42;101078.11;;;3.78;58.69
59939;BME280;45801;51.810;19.444;2023-02-12T09:38:08;101085.61;;;3.78;59.53
59939;BME280;45801;51.810;19.444;2023-02-12T09:51:31;101089.61;;;3.44;59.70
59939;BME280;45801;51.810;19.444;2023-02-12T09:54:11;101089.05;;;3.48;59.33
59939;BME280;45801;51.810;19.444;2023-02-12T09:56:41;101084.17;;;3.57;60.21
59939;BME280;45801;51.810;19.444;2023-02-12T09:59:15;101083.02;;;3.69;60.87
59939;BME280;45801;51.810;19.444;2023-02-12T10:01:45;101082.00;;;3.79;58.98
59939;BME280;45801;51.810;19.444;2023-02-12T10:04:11;101075.36;;;3.85;58.40
59939;BME280;45801;51.810;19.444;2023-02-12T10:06:46;101069.21;;;3.89;58.29
59939;BME280;45801;51.810;19.444;2023-02-12T10:12:17;101076.13;;;4.07;58.59
59939;BME280;45801;51.810;19.444;2023-02-12T10:17:44;101071.23;;;4.17;57.86
59939;BME280;45801;51.810;19.444;2023-02-12T10:20:20;101072.38;;;4.01;57.65
59939;BME280;45801;51.810;19.444;2023-02-12T10:23:19;101067.52;;;4.02;58.02
59939;BME280;45801;51.810;19.444;2023-02-12T10:28:37;101069.73;;;4.30;58.09
59939;BME280;45801;51.810;19.444;2023-02-12T10:31:29;101069.11;;;4.42;57.71
59939;BME280;45801;51.810;19.444;2023-02-12T10:33:57;101066.77;;;4.41;56.25
59939;BME280;45801;51.810;19.444;2023-02-12T10:36:42;101068.98;;;4.56;58.11
59939;BME280;45801;51.810;19.444;2023-02-12T10:41:39;101064.65;;;5.23;59.42
59939;BME280;45801;51.810;19.444;2023-02-12T10:44:11;101059.83;;;5.59;57.58
59939;BME280;45801;51.810;19.444;2023-02-12T10:46:37;101060.30;;;5.66;54.40
59939;BME280;45801;51.810;19.444;2023-02-12T10:49:04;101061.23;;;5.57;53.51
59939;BME280;45801;51.810;19.444;2023-02-12T10:54:43;101067.98;;;5.49;54.30
59939;BME280;45801;51.810;19.444;2023-02-12T10:57:25;101066.36;;;5.43;53.42
59939;BME280;45801;51.810;19.444;2023-02-12T10:59:54;101068.19;;;5.40;53.96
59939;BME280;45801;51.810;19.444;2023-02-12T11:02:25;101070.27;;;5.31;53.09
59939;BME280;45801;51.810;19.444;2023-02-12T11:04:52;101063.81;;;5.30;53.77
59939;BME280;45801;51.810;19.444;2023-02-12T11:07:20;101062.39;;;5.32;54.96
59939;BME280;45801;51.810;19.444;2023-02-12T11:09:48;101057.77;;;5.34;54.15
59939;BME280;45801;51.810;19.444;2023-02-12T11:12:53;101053.06;;;5.31;54.22
59939;BME280;45801;51.810;19.444;2023-02-12T11:15:24;101053.05;;;5.17;53.37
59939;BME280;45801;51.810;19.444;2023-02-12T11:20:40;101055.58;;;5.02;55.44
59939;BME280;45801;51.810;19.444;2023-02-12T11:23:35;101059.02;;;5.06;54.91
59939;BME280;45801;51.810;19.444;2023-02-12T11:26:06;101060.09;;;5.00;54.45
59939;BME280;45801;51.810;19.444;2023-02-12T11:28:57;101057.86;;;4.99;54.67
59939;BME280;45801;51.810;19.444;2023-02-12T11:31:33;101056.30;;;4.98;54.23
59939;BME280;45801;51.810;19.444;2023-02-12T11:36:30;101054.93;;;4.82;54.85
59939;BME280;45801;51.810;19.444;2023-02-12T11:38:58;101056.30;;;4.82;54.75
59939;BME280;45801;51.810;19.444;2023-02-12T11:44:51;101053.98;;;4.79;54.40
59939;BME280;45801;51.810;19.444;2023-02-12T11:47:18;101053.11;;;4.70;54.48
59939;BME280;45801;51.810;19.444;2023-02-12T11:49:51;101049.52;;;4.69;54.80
59939;BME280;45801;51.810;19.444;2023-02-12T11:52:26;101049.10;;;4.75;54.90
59939;BME280;45801;51.810;19.444;2023-02-12T11:54:58;101048.63;;;4.80;55.27
59939;BME280;45801;51.810;19.444;2023-02-12T12:00:05;101052.27;;;4.85;54.69
59939;BME280;45801;51.810;19.444;2023-02-12T12:02:38;101050.57;;;4.91;55.07
59939;BME280;45801;51.810;19.444;2023-02-12T12:05:12;101051.41;;;4.96;54.66
59939;BME280;45801;51.810;19.444;2023-02-12T12:07:45;101055.63;;;4.91;53.64
59939;BME280;45801;51.810;19.444;2023-02-12T12:10:28;101057.19;;;4.91;54.92
59939;BME280;45801;51.810;19.444;2023-02-12T12:12:57;101048.09;;;5.01;55.26
59939;BME280;45801;51.810;19.444;2023-02-12T12:15:31;101048.54;;;5.08;55.47
59939;BME280;45801;51.810;19.444;2023-02-12T12:21:35;101051.77;;;5.00;53.75
59939;BME280;45801;51.810;19.444;2023-02-12T12:26:46;101059.61;;;4.91;53.88
59939;BME280;45801;51.810;19.444;2023-02-12T12:29:21;101058.83;;;4.81;53.71
59939;BME280;45801;51.810;19.444;2023-02-12T12:31:53;101058.33;;;4.82;54.26
59939;BME280;45801;51.810;19.444;2023-02-12T12:34:23;101052.29;;;4.82;54.85
59939;BME280;45801;51.810;19.444;2023-02-12T12:37:25;101050.48;;;4.88;55.70
59939;BME280;45801;51.810;19.444;2023-02-12T12:43:07;101048.23;;;5.01;55.16
59939;BME280;45801;51.810;19.444;2023-02-12T12:54:52;101043.31;;;5.21;55.69
59939;BME280;45801;51.810;19.444;2023-02-12T13:15:18;101038.50;;;5.61;55.31
59939;BME280;45801;51.810;19.444;2023-02-12T13:21:15;101031.34;;;5.74;56.00
59939;BME280;45801;51.810;19.444;2023-02-12T13:24:05;101031.15;;;5.70;55.23
59939;BME280;45801;51.810;19.444;2023-02-12T13:26:42;101030.92;;;5.68;55.73
59939;BME280;45801;51.810;19.444;2023-02-12T13:29:29;101029.89;;;5.68;55.66
59939;BME280;45801;51.810;19.444;2023-02-12T13:32:02;101029.60;;;5.61;56.10
59939;BME280;45801;51.810;19.444;2023-02-12T13:34:31;101030.30;;;5.63;56.60
59939;BME280;45801;51.810;19.444;2023-02-12T13:37:00;101028.15;;;5.70;56.60
59939;BME280;45801;51.810;19.444;2023-02-12T13:39:36;101023.83;;;5.72;56.28
59939;BME280;45801;51.810;19.444;2023-02-12T13:42:35;101020.67;;;5.75;56.62
59939;BME280;45801;51.810;19.444;2023-02-12T13:45:18;101025.86;;;5.73;56.26
59939;BME280;45801;51.810;19.444;2023-02-12T13:53:25;101026.25;;;5.74;57.37
59939;BME280;45801;51.810;19.444;2023-02-12T13:56:05;101021.61;;;5.74;56.93
59939;BME280;45801;51.810;19.444;2023-02-12T14:01:11;101024.97;;;5.67;56.87
59939;BME280;45801;51.810;19.444;2023-02-12T14:03:38;101027.55;;;5.63;57.05
59939;BME280;45801;51.810;19.444;2023-02-12T14:06:14;101026.27;;;5.62;57.24
59939;BME280;45801;51.810;19.444;2023-02-12T14:08:44;101023.40;;;5.50;57.13
59939;BME280;45801;51.810;19.444;2023-02-12T14:11:15;101024.17;;;5.49;57.30
59939;BME280;45801;51.810;19.444;2023-02-12T14:13:52;101023.90;;;5.50;56.96
59939;BME280;45801;51.810;19.444;2023-02-12T14:22:01;101021.78;;;5.38;57.90
59939;BME280;45801;51.810;19.444;2023-02-12T14:27:24;101030.64;;;5.25;57.66
59939;BME280;45801;51.810;19.444;2023-02-12T14:32:55;101027.79;;;5.20;58.36
59939;BME280;45801;51.810;19.444;2023-02-12T14:40:44;101019.20;;;5.20;58.68
59939;BME280;45801;51.810;19.444;2023-02-12T14:45:51;101025.64;;;5.03;59.48
59939;BME280;45801;51.810;19.444;2023-02-12T14:48:40;101027.34;;;5.03;59.84
59939;BME280;45801;51.810;19.444;2023-02-12T14:51:19;101028.72;;;4.97;60.26
59939;BME280;45801;51.810;19.444;2023-02-12T14:53:49;101024.95;;;4.94;60.37
59939;BME280;45801;51.810;19.444;2023-02-12T14:56:22;101021.10;;;5.01;60.40
59939;BME280;45801;51.810;19.444;2023-02-12T14:58:49;101023.50;;;5.04;60.28
59939;BME280;45801;51.810;19.444;2023-02-12T15:01:28;101025.25;;;5.03;60.28
59939;BME280;45801;51.810;19.444;2023-02-12T15:03:56;101034.05;;;4.91;60.84
59939;BME280;45801;51.810;19.444;2023-02-12T15:06:37;101033.30;;;4.88;60.82
59939;BME280;45801;51.810;19.444;2023-02-12T15:09:18;101034.89;;;4.83;61.25
59939;BME280;45801;51.810;19.444;2023-02-12T15:12:16;101036.82;;;4.76;61.65
59939;BME280;45801;51.810;19.444;2023-02-12T15:15:00;101040.00;;;4.64;62.13
59939;BME280;45801;51.810;19.444;2023-02-12T15:17:33;101035.84;;;4.53;62.56
59939;BME280;45801;51.810;19.444;2023-02-12T15:20:07;101034.85;;;4.55;62.26
59939;BME280;45801;51.810;19.444;2023-02-12T15:22:39;101036.48;;;4.61;62.03
59939;BME280;45801;51.810;19.444;2023-02-12T15:25:35;101033.99;;;4.63;62.26
59939;BME280;45801;51.810;19.444;2023-02-12T15:28:17;101029.55;;;4.65;62.13
59939;BME280;45801;51.810;19.444;2023-02-12T15:30:44;101024.52;;;4.67;62.22